sensor_id;sensor_type;location;lat;lon;timestamp;P1;durP1;ratioP1;P2;durP2;ratioP2
60308;SDS011;50313;52.894;6.492;2023-06-22T00:01:40;14.27;;;7.28;;
60308;SDS011;50313;52.894;6.492;2023-06-22T00:04:37;15.70;;;6.88;;
60308;SDS011;50313;52.894;6.492;2023-06-22T00:07:36;14.70;;;7.18;;
60308;SDS011;50313;52.894;6.492;2023-06-22T00:10:50;13.43;;;7.20;;
60308;SDS011;50313;52.894;6.492;2023-06-22T00:13:42;10.18;;;6.43;;
60308;SDS011;50313;52.894;6.492;2023-06-22T00:16:19;9.55;;;5.47;;
60308;SDS011;50313;52.894;6.492;2023-06-22T00:19:06;17.77;;;6.90;;
60308;SDS011;50313;52.894;6.492;2023-06-22T00:22:16;13.88;;;7.75;;
60308;SDS011;50313;52.894;6.492;2023-06-22T00:25:06;15.48;;;7.63;;
60308;SDS011;50313;52.894;6.492;2023-06-22T00:27:54;15.45;;;7.63;;
60308;SDS011;50313;52.894;6.492;2023-06-22T00:30:32;15.15;;;7.85;;
60308;SDS011;50313;52.894;6.492;2023-06-22T00:33:28;19.45;;;7.20;;
60308;SDS011;50313;52.894;6.492;2023-06-22T00:36:42;18.33;;;8.18;;
60308;SDS011;50313;52.894;6.492;2023-06-22T00:39:52;19.00;;;8.20;;
60308;SDS011;50313;52.894;6.492;2023-06-22T00:42:56;10.80;;;6.43;;
60308;SDS011;50313;52.894;6.492;2023-06-22T00:45:50;16.55;;;8.10;;
60308;SDS011;50313;52.894;6.492;2023-06-22T00:48:44;22.95;;;8.68;;
60308;SDS011;50313;52.894;6.492;2023-06-22T00:51:23;17.10;;;8.60;;
60308;SDS011;50313;52.894;6.492;2023-06-22T00:57:43;17.20;;;8.70;;
60308;SDS011;50313;52.894;6.492;2023-06-22T01:17:15;14.93;;;8.55;;
60308;SDS011;50313;52.894;6.492;2023-06-22T01:29:31;13.90;;;8.13;;
60308;SDS011;50313;52.894;6.492;2023-06-22T01:32:14;15.73;;;8.98;;
60308;SDS011;50313;52.894;6.492;2023-06-22T01:34:43;18.40;;;10.15;;
60308;SDS011;50313;52.894;6.492;2023-06-22T01:37:16;16.73;;;8.25;;
60308;SDS011;50313;52.894;6.492;2023-06-22T01:39:52;15.68;;;8.38;;
60308;SDS011;50313;52.894;6.492;2023-06-22T01:42:32;13.60;;;7.78;;
60308;SDS011;50313;52.894;6.492;2023-06-22T01:45:06;15.15;;;7.97;;
60308;SDS011;50313;52.894;6.492;2023-06-22T01:47:46;15.68;;;8.00;;
60308;SDS011;50313;52.894;6.492;2023-06-22T01:50:12;16.80;;;7.72;;
60308;SDS011;50313;52.894;6.492;2023-06-22T01:52:41;13.60;;;8.20;;
60308;SDS011;50313;52.894;6.492;2023-06-22T01:55:12;15.52;;;7.78;;
60308;SDS011;50313;52.894;6.492;2023-06-22T01:58:01;16.90;;;7.90;;
60308;SDS011;50313;52.894;6.492;2023-06-22T02:00:31;14.57;;;7.80;;
60308;SDS011;50313;52.894;6.492;2023-06-22T02:03:34;14.55;;;7.72;;
60308;SDS011;50313;52.894;6.492;2023-06-22T02:06:29;12.40;;;6.28;;
60308;SDS011;50313;52.894;6.492;2023-06-22T02:09:07;12.23;;;7.00;;
60308;SDS011;50313;52.894;6.492;2023-06-22T02:12:05;12.35;;;6.28;;
60308;SDS011;50313;52.894;6.492;2023-06-22T02:14:38;11.18;;;6.57;;
60308;SDS011;50313;52.894;6.492;2023-06-22T02:17:17;11.52;;;5.70;;
60308;SDS011;50313;52.894;6.492;2023-06-22T02:20:03;12.32;;;7.10;;
60308;SDS011;50313;52.894;6.492;2023-06-22T02:22:48;13.45;;;8.15;;
60308;SDS011;50313;52.894;6.492;2023-06-22T02:25:24;11.77;;;6.85;;
60308;SDS011;50313;52.894;6.492;2023-06-22T02:28:18;11.30;;;7.60;;
60308;SDS011;50313;52.894;6.492;2023-06-22T02:30:56;10.95;;;6.78;;
60308;SDS011;50313;52.894;6.492;2023-06-22T02:33:37;8.73;;;6.65;;
60308;SDS011;50313;52.894;6.492;2023-06-22T02:36:06;10.35;;;7.22;;
60308;SDS011;50313;52.894;6.492;2023-06-22T02:38:45;13.18;;;7.05;;
60308;SDS011;50313;52.894;6.492;2023-06-22T02:41:24;12.40;;;7.53;;
60308;SDS011;50313;52.894;6.492;2023-06-22T02:43:54;9.07;;;6.32;;
60308;SDS011;50313;52.894;6.492;2023-06-22T02:46:30;12.13;;;6.82;;
60308;SDS011;50313;52.894;6.492;2023-06-22T02:49:04;8.25;;;6.88;;
60308;SDS011;50313;52.894;6.492;2023-06-22T02:51:50;11.85;;;6.55;;
60308;SDS011;50313;52.894;6.492;2023-06-22T02:54:29;8.98;;;6.13;;
60308;SDS011;50313;52.894;6.492;2023-06-22T02:57:20;6.18;;;5.57;;
60308;SDS011;50313;52.894;6.492;2023-06-22T02:59:48;8.25;;;5.97;;
60308;SDS011;50313;52.894;6.492;2023-06-22T03:02:14;15.55;;;7.30;;
60308;SDS011;50313;52.894;6.492;2023-06-22T03:05:05;10.70;;;6.90;;
60308;SDS011;50313;52.894;6.492;2023-06-22T03:07:41;11.48;;;7.35;;
60308;SDS011;50313;52.894;6.492;2023-06-22T03:10:10;11.65;;;7.80;;
60308;SDS011;50313;52.894;6.492;2023-06-22T03:12:58;7.97;;;7.03;;
60308;SDS011;50313;52.894;6.492;2023-06-22T03:15:39;8.23;;;7.38;;
60308;SDS011;50313;52.894;6.492;2023-06-22T03:18:11;10.57;;;6.63;;
60308;SDS011;50313;52.894;6.492;2023-06-22T03:20:49;10.82;;;6.80;;
60308;SDS011;50313;52.894;6.492;2023-06-22T03:23:53;10.32;;;6.90;;
60308;SDS011;50313;52.894;6.492;2023-06-22T03:26:35;12.45;;;7.72;;
60308;SDS011;50313;52.894;6.492;2023-06-22T03:29:24;14.27;;;6.65;;
60308;SDS011;50313;52.894;6.492;2023-06-22T03:31:52;10.95;;;6.93;;
60308;SDS011;50313;52.894;6.492;2023-06-22T03:34:31;9.73;;;6.95;;
60308;SDS011;50313;52.894;6.492;2023-06-22T03:37:01;11.60;;;6.38;;
60308;SDS011;50313;52.894;6.492;2023-06-22T03:39:35;11.13;;;7.47;;
60308;SDS011;50313;52.894;6.492;2023-06-22T03:44:54;11.73;;;7.97;;
60308;SDS011;50313;52.894;6.492;2023-06-22T03:50:30;16.83;;;7.97;;
60308;SDS011;50313;52.894;6.492;2023-06-22T03:53:08;13.60;;;7.65;;
60308;SDS011;50313;52.894;6.492;2023-06-22T03:56:04;25.63;;;8.77;;
60308;SDS011;50313;52.894;6.492;2023-06-22T03:58:38;17.83;;;9.35;;
60308;SDS011;50313;52.894;6.492;2023-06-22T04:04:12;21.85;;;9.50;;
60308;SDS011;50313;52.894;6.492;2023-06-22T04:07:27;15.20;;;9.50;;
60308;SDS011;50313;52.894;6.492;2023-06-22T04:10:28;14.65;;;8.90;;
60308;SDS011;50313;52.894;6.492;2023-06-22T04:13:13;16.80;;;9.23;;
60308;SDS011;50313;52.894;6.492;2023-06-22T04:15:45;15.38;;;9.98;;
60308;SDS011;50313;52.894;6.492;2023-06-22T04:18:13;13.45;;;9.98;;
60308;SDS011;50313;52.894;6.492;2023-06-22T04:20:46;18.80;;;11.00;;
60308;SDS011;50313;52.894;6.492;2023-06-22T04:23:22;17.83;;;10.82;;
60308;SDS011;50313;52.894;6.492;2023-06-22T04:25:56;19.17;;;10.93;;
60308;SDS011;50313;52.894;6.492;2023-06-22T04:28:25;23.80;;;12.20;;
60308;SDS011;50313;52.894;6.492;2023-06-22T04:31:01;26.65;;;12.50;;
60308;SDS011;50313;52.894;6.492;2023-06-22T04:33:36;16.05;;;9.55;;
60308;SDS011;50313;52.894;6.492;2023-06-22T04:36:14;19.92;;;10.75;;
60308;SDS011;50313;52.894;6.492;2023-06-22T04:38:55;18.80;;;10.18;;
60308;SDS011;50313;52.894;6.492;2023-06-22T04:41:51;16.80;;;9.30;;
60308;SDS011;50313;52.894;6.492;2023-06-22T04:44:27;21.98;;;11.60;;
60308;SDS011;50313;52.894;6.492;2023-06-22T04:47:26;16.67;;;11.00;;
60308;SDS011;50313;52.894;6.492;2023-06-22T04:50:06;25.98;;;12.00;;
60308;SDS011;50313;52.894;6.492;2023-06-22T04:52:46;20.65;;;10.52;;
60308;SDS011;50313;52.894;6.492;2023-06-22T04:55:40;23.27;;;12.15;;
60308;SDS011;50313;52.894;6.492;2023-06-22T04:58:22;22.60;;;11.23;;
60308;SDS011;50313;52.894;6.492;2023-06-22T05:01:11;19.40;;;10.80;;
60308;SDS011;50313;52.894;6.492;2023-06-22T05:04:34;18.35;;;9.75;;
60308;SDS011;50313;52.894;6.492;2023-06-22T05:07:24;19.50;;;10.55;;
60308;SDS011;50313;52.894;6.492;2023-06-22T05:10:14;23.60;;;11.80;;
60308;SDS011;50313;52.894;6.492;2023-06-22T05:12:50;20.08;;;9.57;;
60308;SDS011;50313;52.894;6.492;2023-06-22T05:15:47;15.05;;;9.52;;
60308;SDS011;50313;52.894;6.492;2023-06-22T05:18:44;22.20;;;9.60;;
60308;SDS011;50313;52.894;6.492;2023-06-22T05:24:19;17.80;;;9.85;;
60308;SDS011;50313;52.894;6.492;2023-06-22T05:27:25;18.10;;;10.65;;
60308;SDS011;50313;52.894;6.492;2023-06-22T05:30:47;19.15;;;10.77;;
60308;SDS011;50313;52.894;6.492;2023-06-22T05:33:28;19.98;;;9.80;;
60308;SDS011;50313;52.894;6.492;2023-06-22T05:36:16;17.10;;;9.52;;
60308;SDS011;50313;52.894;6.492;2023-06-22T05:42:16;20.35;;;11.23;;
60308;SDS011;50313;52.894;6.492;2023-06-22T05:44:57;18.42;;;10.20;;
60308;SDS011;50313;52.894;6.492;2023-06-22T05:50:16;17.38;;;9.93;;
60308;SDS011;50313;52.894;6.492;2023-06-22T05:55:59;25.00;;;10.55;;
60308;SDS011;50313;52.894;6.492;2023-06-22T05:58:33;17.13;;;9.98;;
60308;SDS011;50313;52.894;6.492;2023-06-22T06:01:06;18.95;;;9.68;;
60308;SDS011;50313;52.894;6.492;2023-06-22T06:04:02;16.90;;;10.10;;
60308;SDS011;50313;52.894;6.492;2023-06-22T06:06:52;26.77;;;10.65;;
60308;SDS011;50313;52.894;6.492;2023-06-22T06:09:33;20.52;;;9.73;;
60308;SDS011;50313;52.894;6.492;2023-06-22T06:15:10;18.23;;;9.70;;
60308;SDS011;50313;52.894;6.492;2023-06-22T06:17:50;16.13;;;10.45;;
60308;SDS011;50313;52.894;6.492;2023-06-22T06:20:35;28.77;;;10.65;;
60308;SDS011;50313;52.894;6.492;2023-06-22T06:23:14;19.30;;;8.63;;
60308;SDS011;50313;52.894;6.492;2023-06-22T06:25:40;18.67;;;9.05;;
60308;SDS011;50313;52.894;6.492;2023-06-22T06:28:21;20.90;;;10.43;;
60308;SDS011;50313;52.894;6.492;2023-06-22T06:31:03;17.50;;;10.60;;
60308;SDS011;50313;52.894;6.492;2023-06-22T06:33:52;16.50;;;9.20;;
60308;SDS011;50313;52.894;6.492;2023-06-22T06:36:45;21.90;;;8.80;;
60308;SDS011;50313;52.894;6.492;2023-06-22T06:39:21;28.15;;;8.95;;
60308;SDS011;50313;52.894;6.492;2023-06-22T06:42:20;19.05;;;9.27;;
60308;SDS011;50313;52.894;6.492;2023-06-22T06:45:03;15.93;;;8.07;;
60308;SDS011;50313;52.894;6.492;2023-06-22T06:48:01;13.35;;;8.40;;
60308;SDS011;50313;52.894;6.492;2023-06-22T06:50:55;16.73;;;8.15;;
60308;SDS011;50313;52.894;6.492;2023-06-22T06:56:17;16.20;;;8.35;;
60308;SDS011;50313;52.894;6.492;2023-06-22T06:58:49;12.48;;;7.38;;
60308;SDS011;50313;52.894;6.492;2023-06-22T07:01:21;11.48;;;6.25;;
60308;SDS011;50313;52.894;6.492;2023-06-22T07:04:33;11.35;;;6.03;;
60308;SDS011;50313;52.894;6.492;2023-06-22T07:07:34;10.30;;;5.63;;
60308;SDS011;50313;52.894;6.492;2023-06-22T07:13:22;11.27;;;5.10;;
60308;SDS011;50313;52.894;6.492;2023-06-22T07:15:56;12.93;;;5.38;;
60308;SDS011;50313;52.894;6.492;2023-06-22T07:18:29;10.13;;;5.05;;
60308;SDS011;50313;52.894;6.492;2023-06-22T07:21:07;10.85;;;4.03;;
60308;SDS011;50313;52.894;6.492;2023-06-22T07:23:38;5.85;;;3.83;;
60308;SDS011;50313;52.894;6.492;2023-06-22T07:26:29;8.38;;;3.92;;
60308;SDS011;50313;52.894;6.492;2023-06-22T07:29:07;7.25;;;4.07;;
60308;SDS011;50313;52.894;6.492;2023-06-22T07:31:41;6.82;;;3.63;;
60308;SDS011;50313;52.894;6.492;2023-06-22T07:34:53;11.60;;;3.97;;
60308;SDS011;50313;52.894;6.492;2023-06-22T07:40:32;8.27;;;3.85;;
60308;SDS011;50313;52.894;6.492;2023-06-22T07:43:43;9.05;;;4.63;;
60308;SDS011;50313;52.894;6.492;2023-06-22T07:46:21;8.45;;;3.95;;
60308;SDS011;50313;52.894;6.492;2023-06-22T07:49:11;7.68;;;4.25;;
60308;SDS011;50313;52.894;6.492;2023-06-22T07:52:01;7.72;;;4.47;;
60308;SDS011;50313;52.894;6.492;2023-06-22T08:07:41;7.25;;;3.80;;
60308;SDS011;50313;52.894;6.492;2023-06-22T08:10:49;7.65;;;4.00;;
60308;SDS011;50313;52.894;6.492;2023-06-22T08:24:06;7.00;;;4.00;;
60308;SDS011;50313;52.894;6.492;2023-06-22T08:27:19;5.20;;;3.67;;
60308;SDS011;50313;52.894;6.492;2023-06-22T08:30:52;6.15;;;3.25;;
60308;SDS011;50313;52.894;6.492;2023-06-22T08:33:23;6.47;;;3.85;;
60308;SDS011;50313;52.894;6.492;2023-06-22T08:36:28;7.67;;;4.20;;
60308;SDS011;50313;52.894;6.492;2023-06-22T08:43:00;6.63;;;4.00;;
60308;SDS011;50313;52.894;6.492;2023-06-22T08:50:04;5.78;;;3.50;;
60308;SDS011;50313;52.894;6.492;2023-06-22T08:59:49;6.07;;;3.55;;
60308;SDS011;50313;52.894;6.492;2023-06-22T09:06:32;2.97;;;2.35;;
60308;SDS011;50313;52.894;6.492;2023-06-22T09:09:16;10.85;;;4.18;;
60308;SDS011;50313;52.894;6.492;2023-06-22T09:11:57;6.95;;;3.38;;
60308;SDS011;50313;52.894;6.492;2023-06-22T09:14:48;6.18;;;3.80;;
60308;SDS011;50313;52.894;6.492;2023-06-22T09:17:33;5.80;;;3.58;;
60308;SDS011;50313;52.894;6.492;2023-06-22T09:20:41;10.00;;;4.05;;
60308;SDS011;50313;52.894;6.492;2023-06-22T09:23:35;8.82;;;3.67;;
60308;SDS011;50313;52.894;6.492;2023-06-22T09:26:18;8.80;;;3.92;;
60308;SDS011;50313;52.894;6.492;2023-06-22T09:35:45;5.95;;;3.97;;
60308;SDS011;50313;52.894;6.492;2023-06-22T09:42:11;5.88;;;3.30;;
60308;SDS011;50313;52.894;6.492;2023-06-22T09:45:08;6.47;;;3.17;;
60308;SDS011;50313;52.894;6.492;2023-06-22T09:51:00;9.82;;;3.83;;
60308;SDS011;50313;52.894;6.492;2023-06-22T09:53:58;7.65;;;4.35;;
60308;SDS011;50313;52.894;6.492;2023-06-22T09:56:29;7.15;;;3.90;;
60308;SDS011;50313;52.894;6.492;2023-06-22T10:02:14;8.00;;;4.05;;
60308;SDS011;50313;52.894;6.492;2023-06-22T10:15:56;8.65;;;4.00;;
60308;SDS011;50313;52.894;6.492;2023-06-22T10:19:15;6.30;;;3.47;;
60308;SDS011;50313;52.894;6.492;2023-06-22T10:26:20;4.72;;;3.38;;
60308;SDS011;50313;52.894;6.492;2023-06-22T10:29:08;5.72;;;2.90;;
60308;SDS011;50313;52.894;6.492;2023-06-22T10:32:07;7.10;;;3.58;;
60308;SDS011;50313;52.894;6.492;2023-06-22T10:37:48;6.57;;;3.35;;
60308;SDS011;50313;52.894;6.492;2023-06-22T10:44:03;5.85;;;3.42;;
60308;SDS011;50313;52.894;6.492;2023-06-22T10:47:05;5.18;;;2.95;;
60308;SDS011;50313;52.894;6.492;2023-06-22T11:00:47;7.75;;;3.80;;
60308;SDS011;50313;52.894;6.492;2023-06-22T11:04:18;6.95;;;3.30;;
60308;SDS011;50313;52.894;6.492;2023-06-22T11:07:12;5.45;;;2.80;;
60308;SDS011;50313;52.894;6.492;2023-06-22T11:13:08;6.47;;;3.63;;
60308;SDS011;50313;52.894;6.492;2023-06-22T11:16:00;5.88;;;2.78;;
60308;SDS011;50313;52.894;6.492;2023-06-22T11:25:48;6.13;;;3.40;;
60308;SDS011;50313;52.894;6.492;2023-06-22T11:28:51;5.57;;;3.03;;
60308;SDS011;50313;52.894;6.492;2023-06-22T11:35:22;8.55;;;2.72;;
60308;SDS011;50313;52.894;6.492;2023-06-22T11:38:37;5.60;;;3.15;;
60308;SDS011;50313;52.894;6.492;2023-06-22T11:41:48;4.45;;;2.53;;
60308;SDS011;50313;52.894;6.492;2023-06-22T11:47:59;3.50;;;2.20;;
60308;SDS011;50313;52.894;6.492;2023-06-22T11:53:51;5.65;;;2.63;;
60308;SDS011;50313;52.894;6.492;2023-06-22T12:00:29;13.02;;;3.20;;
60308;SDS011;50313;52.894;6.492;2023-06-22T12:03:38;5.10;;;3.22;;
60308;SDS011;50313;52.894;6.492;2023-06-22T12:09:33;5.30;;;2.92;;
60308;SDS011;50313;52.894;6.492;2023-06-22T12:12:35;4.13;;;2.65;;
60308;SDS011;50313;52.894;6.492;2023-06-22T12:15:56;2.80;;;2.22;;
60308;SDS011;50313;52.894;6.492;2023-06-22T12:18:34;6.75;;;2.83;;
60308;SDS011;50313;52.894;6.492;2023-06-22T12:21:17;7.55;;;2.42;;
60308;SDS011;50313;52.894;6.492;2023-06-22T12:23:54;9.52;;;3.50;;
60308;SDS011;50313;52.894;6.492;2023-06-22T12:26:45;3.40;;;2.30;;
60308;SDS011;50313;52.894;6.492;2023-06-22T12:29:24;4.15;;;2.55;;
60308;SDS011;50313;52.894;6.492;2023-06-22T12:36:35;6.35;;;3.00;;
60308;SDS011;50313;52.894;6.492;2023-06-22T12:45:39;4.35;;;2.38;;
60308;SDS011;50313;52.894;6.492;2023-06-22T12:48:31;4.18;;;2.45;;
60308;SDS011;50313;52.894;6.492;2023-06-22T12:51:30;5.15;;;3.13;;
60308;SDS011;50313;52.894;6.492;2023-06-22T12:54:47;3.47;;;1.60;;
60308;SDS011;50313;52.894;6.492;2023-06-22T12:57:15;4.38;;;2.60;;
60308;SDS011;50313;52.894;6.492;2023-06-22T12:59:48;5.93;;;2.72;;
60308;SDS011;50313;52.894;6.492;2023-06-22T13:02:27;4.25;;;2.60;;
60308;SDS011;50313;52.894;6.492;2023-06-22T13:08:20;6.25;;;2.90;;
60308;SDS011;50313;52.894;6.492;2023-06-22T13:14:29;6.88;;;2.67;;
60308;SDS011;50313;52.894;6.492;2023-06-22T13:39:36;5.78;;;3.60;;
60308;SDS011;50313;52.894;6.492;2023-06-22T15:38:29;6.15;;;3.50;;
60308;SDS011;50313;52.894;6.492;2023-06-22T15:43:59;10.13;;;3.85;;
60308;SDS011;50313;52.894;6.492;2023-06-22T15:46:32;5.93;;;3.33;;
60308;SDS011;50313;52.894;6.492;2023-06-22T15:49:04;7.15;;;3.03;;
60308;SDS011;50313;52.894;6.492;2023-06-22T15:51:40;3.58;;;2.53;;
60308;SDS011;50313;52.894;6.492;2023-06-22T15:54:19;5.20;;;2.28;;
60308;SDS011;50313;52.894;6.492;2023-06-22T15:56:45;5.85;;;2.05;;
60308;SDS011;50313;52.894;6.492;2023-06-22T15:59:20;4.60;;;2.40;;
60308;SDS011;50313;52.894;6.492;2023-06-22T16:01:46;5.97;;;2.63;;
60308;SDS011;50313;52.894;6.492;2023-06-22T16:04:27;3.97;;;2.65;;
60308;SDS011;50313;52.894;6.492;2023-06-22T16:06:55;5.85;;;2.47;;
60308;SDS011;50313;52.894;6.492;2023-06-22T16:09:21;6.45;;;2.40;;
60308;SDS011;50313;52.894;6.492;2023-06-22T16:11:48;4.40;;;2.22;;
60308;SDS011;50313;52.894;6.492;2023-06-22T16:14:14;3.53;;;2.22;;
60308;SDS011;50313;52.894;6.492;2023-06-22T16:16:43;4.43;;;1.98;;
60308;SDS011;50313;52.894;6.492;2023-06-22T16:19:08;5.68;;;2.08;;
60308;SDS011;50313;52.894;6.492;2023-06-22T16:21:52;3.92;;;2.22;;
60308;SDS011;50313;52.894;6.492;2023-06-22T16:24:20;4.20;;;2.15;;
60308;SDS011;50313;52.894;6.492;2023-06-22T16:26:50;5.18;;;2.15;;
60308;SDS011;50313;52.894;6.492;2023-06-22T16:29:16;8.32;;;2.22;;
60308;SDS011;50313;52.894;6.492;2023-06-22T16:31:42;4.82;;;2.63;;
60308;SDS011;50313;52.894;6.492;2023-06-22T16:34:08;4.03;;;1.95;;
60308;SDS011;50313;52.894;6.492;2023-06-22T16:36:36;2.35;;;1.52;;
60308;SDS011;50313;52.894;6.492;2023-06-22T16:39:16;4.65;;;1.98;;
60308;SDS011;50313;52.894;6.492;2023-06-22T16:41:47;4.47;;;1.58;;
60308;SDS011;50313;52.894;6.492;2023-06-22T16:44:14;3.25;;;1.90;;
60308;SDS011;50313;52.894;6.492;2023-06-22T16:46:40;2.78;;;1.40;;
60308;SDS011;50313;52.894;6.492;2023-06-22T16:49:29;2.20;;;1.17;;
60308;SDS011;50313;52.894;6.492;2023-06-22T16:51:57;2.75;;;1.42;;
60308;SDS011;50313;52.894;6.492;2023-06-22T16:54:47;2.42;;;1.17;;
60308;SDS011;50313;52.894;6.492;2023-06-22T16:57:17;11.30;;;1.30;;
60308;SDS011;50313;52.894;6.492;2023-06-22T16:59:55;1.85;;;1.38;;
60308;SDS011;50313;52.894;6.492;2023-06-22T17:02:29;5.20;;;1.52;;
60308;SDS011;50313;52.894;6.492;2023-06-22T17:05:04;5.85;;;1.77;;
60308;SDS011;50313;52.894;6.492;2023-06-22T17:07:33;2.40;;;1.23;;
60308;SDS011;50313;52.894;6.492;2023-06-22T17:10:19;2.13;;;1.02;;
60308;SDS011;50313;52.894;6.492;2023-06-22T17:12:58;2.92;;;1.23;;
60308;SDS011;50313;52.894;6.492;2023-06-22T17:15:36;2.53;;;1.23;;
60308;SDS011;50313;52.894;6.492;2023-06-22T17:18:09;2.92;;;1.17;;
60308;SDS011;50313;52.894;6.492;2023-06-22T17:20:45;1.73;;;1.23;;
60308;SDS011;50313;52.894;6.492;2023-06-22T17:23:11;1.50;;;1.00;;
60308;SDS011;50313;52.894;6.492;2023-06-22T17:25:37;1.00;;;0.77;;
60308;SDS011;50313;52.894;6.492;2023-06-22T17:31:26;1.40;;;0.95;;
60308;SDS011;50313;52.894;6.492;2023-06-22T17:34:21;1.35;;;0.90;;
60308;SDS011;50313;52.894;6.492;2023-06-22T17:36:52;1.80;;;1.10;;
60308;SDS011;50313;52.894;6.492;2023-06-22T17:39:29;1.80;;;1.00;;
60308;SDS011;50313;52.894;6.492;2023-06-22T17:41:55;3.58;;;1.33;;
60308;SDS011;50313;52.894;6.492;2023-06-22T17:44:27;1.75;;;1.00;;
60308;SDS011;50313;52.894;6.492;2023-06-22T17:47:00;2.03;;;1.48;;
60308;SDS011;50313;52.894;6.492;2023-06-22T17:49:31;1.55;;;0.95;;
60308;SDS011;50313;52.894;6.492;2023-06-22T17:55:42;1.35;;;1.05;;
60308;SDS011;50313;52.894;6.492;2023-06-22T18:02:26;1.70;;;1.00;;
60308;SDS011;50313;52.894;6.492;2023-06-22T18:07:56;4.28;;;1.52;;
60308;SDS011;50313;52.894;6.492;2023-06-22T18:10:31;5.82;;;1.50;;
60308;SDS011;50313;52.894;6.492;2023-06-22T18:13:10;3.63;;;1.60;;
60308;SDS011;50313;52.894;6.492;2023-06-22T18:16:16;2.63;;;1.40;;
60308;SDS011;50313;52.894;6.492;2023-06-22T18:18:51;2.85;;;1.52;;
60308;SDS011;50313;52.894;6.492;2023-06-22T18:24:13;3.08;;;1.13;;
60308;SDS011;50313;52.894;6.492;2023-06-22T18:26:40;2.55;;;1.40;;
60308;SDS011;50313;52.894;6.492;2023-06-22T18:29:07;3.28;;;1.17;;
60308;SDS011;50313;52.894;6.492;2023-06-22T18:31:54;1.25;;;1.00;;
60308;SDS011;50313;52.894;6.492;2023-06-22T18:34:31;2.85;;;1.13;;
60308;SDS011;50313;52.894;6.492;2023-06-22T18:37:01;2.97;;;1.55;;
60308;SDS011;50313;52.894;6.492;2023-06-22T18:39:33;1.63;;;1.42;;
60308;SDS011;50313;52.894;6.492;2023-06-22T18:42:01;3.70;;;1.52;;
60308;SDS011;50313;52.894;6.492;2023-06-22T18:44:31;2.08;;;1.20;;
60308;SDS011;50313;52.894;6.492;2023-06-22T18:47:08;5.13;;;1.55;;
60308;SDS011;50313;52.894;6.492;2023-06-22T18:57:38;2.97;;;1.55;;
60308;SDS011;50313;52.894;6.492;2023-06-22T19:00:34;7.20;;;2.05;;
60308;SDS011;50313;52.894;6.492;2023-06-22T19:03:33;4.20;;;2.05;;
60308;SDS011;50313;52.894;6.492;2023-06-22T19:09:36;1.85;;;1.42;;
60308;SDS011;50313;52.894;6.492;2023-06-22T19:21:06;3.15;;;1.95;;
60308;SDS011;50313;52.894;6.492;2023-06-22T19:23:48;2.88;;;1.73;;
60308;SDS011;50313;52.894;6.492;2023-06-22T19:26:18;1.73;;;1.17;;
60308;SDS011;50313;52.894;6.492;2023-06-22T19:28:45;6.45;;;2.10;;
60308;SDS011;50313;52.894;6.492;2023-06-22T19:31:54;3.53;;;1.75;;
60308;SDS011;50313;52.894;6.492;2023-06-22T19:34:04;2.25;;;1.40;;
60308;SDS011;50313;52.894;6.492;2023-06-22T19:39:37;3.47;;;2.05;;
60308;SDS011;50313;52.894;6.492;2023-06-22T19:42:24;3.22;;;1.92;;
60308;SDS011;50313;52.894;6.492;2023-06-22T19:44:58;4.97;;;1.63;;
60308;SDS011;50313;52.894;6.492;2023-06-22T19:47:38;4.88;;;2.03;;
60308;SDS011;50313;52.894;6.492;2023-06-22T19:50:04;3.92;;;2.10;;
60308;SDS011;50313;52.894;6.492;2023-06-22T19:52:50;4.10;;;1.85;;
60308;SDS011;50313;52.894;6.492;2023-06-22T19:55:18;3.78;;;2.22;;
60308;SDS011;50313;52.894;6.492;2023-06-22T19:57:49;5.88;;;2.28;;
60308;SDS011;50313;52.894;6.492;2023-06-22T20:00:32;6.97;;;2.55;;
60308;SDS011;50313;52.894;6.492;2023-06-22T20:03:02;10.05;;;2.33;;
60308;SDS011;50313;52.894;6.492;2023-06-22T20:05:33;3.50;;;2.07;;
60308;SDS011;50313;52.894;6.492;2023-06-22T20:08:20;3.13;;;2.10;;
60308;SDS011;50313;52.894;6.492;2023-06-22T20:10:52;2.25;;;1.55;;
60308;SDS011;50313;52.894;6.492;2023-06-22T20:13:28;9.10;;;2.05;;
60308;SDS011;50313;52.894;6.492;2023-06-22T20:15:56;4.47;;;2.00;;
60308;SDS011;50313;52.894;6.492;2023-06-22T20:18:32;3.75;;;1.98;;
60308;SDS011;50313;52.894;6.492;2023-06-22T20:20:58;5.25;;;2.08;;
60308;SDS011;50313;52.894;6.492;2023-06-22T20:23:27;3.75;;;2.08;;
60308;SDS011;50313;52.894;6.492;2023-06-22T20:26:06;4.63;;;2.30;;
60308;SDS011;50313;52.894;6.492;2023-06-22T20:28:38;5.30;;;1.88;;
60308;SDS011;50313;52.894;6.492;2023-06-22T20:31:07;4.55;;;2.30;;
60308;SDS011;50313;52.894;6.492;2023-06-22T20:33:40;5.30;;;2.05;;
60308;SDS011;50313;52.894;6.492;2023-06-22T20:36:29;4.07;;;1.90;;
60308;SDS011;50313;52.894;6.492;2023-06-22T20:38:57;1.92;;;1.35;;
60308;SDS011;50313;52.894;6.492;2023-06-22T20:41:36;6.15;;;2.05;;
60308;SDS011;50313;52.894;6.492;2023-06-22T20:44:02;3.05;;;1.50;;
60308;SDS011;50313;52.894;6.492;2023-06-22T20:46:53;6.32;;;2.45;;
60308;SDS011;50313;52.894;6.492;2023-06-22T20:49:25;4.90;;;1.98;;
60308;SDS011;50313;52.894;6.492;2023-06-22T20:52:15;5.07;;;1.80;;
60308;SDS011;50313;52.894;6.492;2023-06-22T20:54:43;4.80;;;2.58;;
60308;SDS011;50313;52.894;6.492;2023-06-22T20:57:22;2.45;;;1.77;;
60308;SDS011;50313;52.894;6.492;2023-06-22T21:00:17;2.80;;;2.00;;
60308;SDS011;50313;52.894;6.492;2023-06-22T21:03:03;4.30;;;2.28;;
60308;SDS011;50313;52.894;6.492;2023-06-22T21:05:56;3.63;;;2.03;;
60308;SDS011;50313;52.894;6.492;2023-06-22T21:08:40;5.38;;;1.80;;
60308;SDS011;50313;52.894;6.492;2023-06-22T21:11:16;6.22;;;2.03;;
60308;SDS011;50313;52.894;6.492;2023-06-22T21:13:54;4.55;;;2.30;;
60308;SDS011;50313;52.894;6.492;2023-06-22T21:16:31;4.88;;;2.50;;
60308;SDS011;50313;52.894;6.492;2023-06-22T21:19:38;3.90;;;2.55;;
60308;SDS011;50313;52.894;6.492;2023-06-22T21:24:44;6.28;;;1.98;;
60308;SDS011;50313;52.894;6.492;2023-06-22T21:27:44;2.70;;;1.95;;
60308;SDS011;50313;52.894;6.492;2023-06-22T21:30:35;7.93;;;2.40;;
60308;SDS011;50313;52.894;6.492;2023-06-22T21:35:50;3.53;;;2.08;;
60308;SDS011;50313;52.894;6.492;2023-06-22T21:38:25;3.78;;;2.08;;
60308;SDS011;50313;52.894;6.492;2023-06-22T21:41:07;7.70;;;2.40;;
60308;SDS011;50313;52.894;6.492;2023-06-22T21:43:57;8.35;;;2.50;;
60308;SDS011;50313;52.894;6.492;2023-06-22T21:46:25;6.78;;;2.83;;
60308;SDS011;50313;52.894;6.492;2023-06-22T21:48:57;3.63;;;2.75;;
60308;SDS011;50313;52.894;6.492;2023-06-22T21:51:35;6.18;;;1.95;;
60308;SDS011;50313;52.894;6.492;2023-06-22T21:54:09;5.45;;;2.35;;
60308;SDS011;50313;52.894;6.492;2023-06-22T21:56:46;5.07;;;3.05;;
60308;SDS011;50313;52.894;6.492;2023-06-22T21:59:15;8.00;;;2.30;;
60308;SDS011;50313;52.894;6.492;2023-06-22T22:01:51;6.72;;;2.13;;
60308;SDS011;50313;52.894;6.492;2023-06-22T22:04:28;5.57;;;2.67;;
60308;SDS011;50313;52.894;6.492;2023-06-22T22:09:38;5.82;;;2.85;;
60308;SDS011;50313;52.894;6.492;2023-06-22T22:12:24;3.30;;;1.92;;
60308;SDS011;50313;52.894;6.492;2023-06-22T22:14:59;8.20;;;2.40;;
60308;SDS011;50313;52.894;6.492;2023-06-22T22:18:00;3.83;;;2.20;;
60308;SDS011;50313;52.894;6.492;2023-06-22T22:20:46;5.13;;;3.22;;
60308;SDS011;50313;52.894;6.492;2023-06-22T22:23:17;3.10;;;2.20;;
60308;SDS011;50313;52.894;6.492;2023-06-22T22:25:53;5.55;;;2.85;;
60308;SDS011;50313;52.894;6.492;2023-06-22T22:28:51;3.67;;;2.50;;
60308;SDS011;50313;52.894;6.492;2023-06-22T22:37:51;2.67;;;1.85;;
60308;SDS011;50313;52.894;6.492;2023-06-22T22:40:51;9.55;;;2.83;;
60308;SDS011;50313;52.894;6.492;2023-06-22T22:43:22;1.95;;;1.17;;
60308;SDS011;50313;52.894;6.492;2023-06-22T22:46:09;8.77;;;2.08;;